createdAt,value
2018-03-08T00:00:40.093Z,10.37
2018-03-08T00:03:07.606Z,9.97
2018-03-08T00:05:35.874Z,10.67
2018-03-08T00:08:04.161Z,10.70
2018-03-08T00:10:32.542Z,9.73
2018-03-08T00:13:00.824Z,8.90
2018-03-08T00:15:29.209Z,9.53
2018-03-08T00:17:58.117Z,10.00
2018-03-08T00:20:25.620Z,8.73
2018-03-08T00:22:53.228Z,9.83
2018-03-08T00:25:21.493Z,8.70
2018-03-08T00:27:48.992Z,8.93
2018-03-08T00:30:16.501Z,8.33
2018-03-08T00:32:44.096Z,8.43
2018-03-08T00:35:12.368Z,8.90
2018-03-08T00:37:39.886Z,8.60
2018-03-08T00:40:07.409Z,8.60
2018-03-08T00:42:35.679Z,7.03
2018-03-08T00:45:03.956Z,8.03
2018-03-08T00:47:31.476Z,7.67
2018-03-08T00:49:58.994Z,6.97
2018-03-08T00:52:27.257Z,7.07
2018-03-08T00:54:54.844Z,9.53
2018-03-08T00:57:22.404Z,8.37
2018-03-08T00:59:50.676Z,6.63
2018-03-08T01:02:18.959Z,6.40
2018-03-08T01:04:47.245Z,7.17
2018-03-08T01:07:15.520Z,8.33
2018-03-08T01:09:43.799Z,7.20
2018-03-08T01:12:12.087Z,7.00
2018-03-08T01:14:40.475Z,6.53
2018-03-08T01:17:08.748Z,6.23
2018-03-08T01:19:37.037Z,7.90
2018-03-08T01:22:05.309Z,6.60
2018-03-08T01:24:33.594Z,7.07
2018-03-08T01:27:01.874Z,7.00
2018-03-08T01:29:30.144Z,6.73
2018-03-08T01:31:57.658Z,5.40
2018-03-08T01:34:25.165Z,7.23
2018-03-08T01:36:52.745Z,5.73
2018-03-08T01:39:21.437Z,6.47
2018-03-08T01:41:49.704Z,5.80
2018-03-08T01:44:17.197Z,5.03
2018-03-08T01:46:44.710Z,6.07
2018-03-08T01:49:12.306Z,5.43
2018-03-08T01:52:04.428Z,5.57
2018-03-08T01:54:32.714Z,5.73
2018-03-08T01:57:00.989Z,5.00
2018-03-08T01:59:29.271Z,4.77
2018-03-08T02:01:57.543Z,4.73
2018-03-08T02:04:25.832Z,5.30
2018-03-08T02:06:54.122Z,5.57
2018-03-08T02:09:22.393Z,4.97
2018-03-08T02:11:50.670Z,5.90
2018-03-08T02:14:18.953Z,5.10
2018-03-08T02:16:47.238Z,5.77
2018-03-08T02:19:15.504Z,5.23
2018-03-08T02:21:43.081Z,5.30
2018-03-08T02:24:11.349Z,5.23
2018-03-08T02:26:38.852Z,5.30
2018-03-08T02:29:06.394Z,4.33
2018-03-08T02:31:33.920Z,4.00
2018-03-08T02:34:01.434Z,4.20
2018-03-08T02:36:28.940Z,4.73
2018-03-08T02:38:56.443Z,4.77
2018-03-08T02:41:24.927Z,3.63
2018-03-08T02:43:53.207Z,4.10
2018-03-08T02:46:21.479Z,3.40
2018-03-08T02:48:49.750Z,3.60
2018-03-08T02:51:17.329Z,4.20
2018-03-08T02:53:45.592Z,3.97
2018-03-08T02:56:13.108Z,4.20
2018-03-08T02:58:41.221Z,3.97
2018-03-08T03:01:08.744Z,3.70
2018-03-08T03:03:36.250Z,3.43
2018-03-08T03:06:04.565Z,3.87
2018-03-08T03:08:32.944Z,3.50
2018-03-08T03:11:01.221Z,3.83
2018-03-08T03:13:29.514Z,3.97
2018-03-08T03:15:57.024Z,4.40
2018-03-08T03:18:24.644Z,3.67
2018-03-08T03:20:52.196Z,3.13
2018-03-08T03:23:20.469Z,3.40
2018-03-08T03:25:49.045Z,3.23
2018-03-08T03:28:16.548Z,3.37
2018-03-08T03:30:44.061Z,4.20
2018-03-08T03:33:11.585Z,3.40
2018-03-08T03:35:39.092Z,3.40
2018-03-08T03:38:06.593Z,3.13
2018-03-08T03:40:34.140Z,3.40
2018-03-08T03:43:01.712Z,3.17
2018-03-08T03:45:29.980Z,3.03
2018-03-08T03:47:58.250Z,3.10
2018-03-08T03:50:26.480Z,4.60
2018-03-08T03:52:53.983Z,3.43
2018-03-08T03:55:21.575Z,3.07
2018-03-08T03:57:49.857Z,2.87
2018-03-08T04:00:18.144Z,3.03
2018-03-08T04:02:46.412Z,3.27
2018-03-08T04:05:14.679Z,3.00
2018-03-08T04:07:42.277Z,2.63
2018-03-08T04:10:09.787Z,2.67
2018-03-08T04:12:37.298Z,3.17
2018-03-08T04:15:05.668Z,2.90
2018-03-08T04:17:33.937Z,2.70
2018-03-08T04:20:01.446Z,2.43
2018-03-08T04:22:28.958Z,2.63
2018-03-08T04:24:56.550Z,2.53
2018-03-08T04:27:24.827Z,2.77
2018-03-08T04:29:53.108Z,3.67
2018-03-08T04:32:21.491Z,2.50
2018-03-08T04:34:49.762Z,2.30
2018-03-08T04:37:18.059Z,2.90
2018-03-08T04:39:45.617Z,3.20
2018-03-08T04:42:13.892Z,9.77
2018-03-08T04:44:42.179Z,9.53
2018-03-08T04:47:10.446Z,8.07
2018-03-08T04:49:38.742Z,8.23
2018-03-08T04:52:07.008Z,9.73
2018-03-08T04:54:35.275Z,8.30
2018-03-08T04:57:02.855Z,7.40
2018-03-08T04:59:31.130Z,5.47
2018-03-08T05:01:58.629Z,6.43
2018-03-08T05:04:26.134Z,5.27
2018-03-08T05:06:53.666Z,11.90
2018-03-08T05:09:21.209Z,4.17
2018-03-08T05:11:48.718Z,4.70
2018-03-08T05:14:16.326Z,7.03
2018-03-08T05:16:43.836Z,7.57
2018-03-08T05:19:11.346Z,5.33
2018-03-08T05:21:39.622Z,4.90
2018-03-08T05:24:07.923Z,5.50
2018-03-08T05:26:35.430Z,3.83
2018-03-08T05:29:02.943Z,3.70
2018-03-08T05:31:31.214Z,3.87
2018-03-08T05:33:59.490Z,4.60
2018-03-08T05:36:27.776Z,4.13
2018-03-08T05:38:56.040Z,5.03
2018-03-08T05:41:23.629Z,2.90
2018-03-08T05:43:51.895Z,5.67
2018-03-08T05:46:20.171Z,4.97
2018-03-08T05:48:47.754Z,4.33
2018-03-08T05:51:16.342Z,9.83
2018-03-08T05:53:44.612Z,7.13
2018-03-08T05:56:12.878Z,7.70
2018-03-08T05:58:41.179Z,9.37
2018-03-08T06:01:09.447Z,7.63
2018-03-08T06:03:36.962Z,6.67
2018-03-08T06:06:05.439Z,6.30
2018-03-08T06:08:32.940Z,8.00
2018-03-08T06:11:00.443Z,6.20
2018-03-08T06:13:27.949Z,6.93
2018-03-08T06:15:55.457Z,8.60
2018-03-08T06:18:23.732Z,9.67
2018-03-08T06:20:52.022Z,9.30
2018-03-08T06:23:20.289Z,9.10
2018-03-08T06:25:47.867Z,9.83
2018-03-08T06:28:16.147Z,8.70
2018-03-08T06:30:44.523Z,9.03
2018-03-08T06:33:12.816Z,10.90
2018-03-08T06:35:40.381Z,8.53
2018-03-08T06:38:08.658Z,8.40
2018-03-08T06:40:36.944Z,8.30
2018-03-08T06:43:05.318Z,6.87
2018-03-08T06:45:33.608Z,10.27
2018-03-08T06:48:01.113Z,9.37
2018-03-08T06:50:28.616Z,10.27
2018-03-08T06:52:56.909Z,9.47
2018-03-08T06:55:25.179Z,7.50
2018-03-08T06:57:53.463Z,7.60
2018-03-08T07:00:21.730Z,9.10
2018-03-08T07:02:49.254Z,6.93
2018-03-08T07:05:16.777Z,8.30
2018-03-08T07:07:45.044Z,7.90
2018-03-08T07:10:13.330Z,7.93
2018-03-08T07:12:42.590Z,7.77
2018-03-08T07:15:10.109Z,7.53
2018-03-08T07:17:37.664Z,6.63
2018-03-08T07:20:05.946Z,8.10
2018-03-08T07:22:34.225Z,6.30
2018-03-08T07:25:02.497Z,8.60
2018-03-08T07:27:30.009Z,7.63
2018-03-08T07:29:57.532Z,7.13
2018-03-08T07:32:25.059Z,8.27
2018-03-08T07:34:52.662Z,8.20
2018-03-08T07:37:21.858Z,9.53
2018-03-08T07:39:50.150Z,7.93
2018-03-08T07:42:18.526Z,7.83
2018-03-08T07:44:46.793Z,9.80
2018-03-08T07:47:14.391Z,7.13
2018-03-08T07:49:41.946Z,9.30
2018-03-08T07:52:10.220Z,11.50
2018-03-08T07:54:38.497Z,7.23
2018-03-08T07:57:06.771Z,7.20
2018-03-08T07:59:35.046Z,9.27
2018-03-08T08:02:02.552Z,6.63
2018-03-08T08:04:41.962Z,6.17
2018-03-08T08:07:22.037Z,8.07
2018-03-08T08:09:49.560Z,12.90
2018-03-08T08:12:17.829Z,8.73
2018-03-08T08:14:45.351Z,9.53
2018-03-08T08:17:12.863Z,7.90
2018-03-08T08:19:40.371Z,6.57
2018-03-08T08:22:07.907Z,7.50
2018-03-08T08:24:36.182Z,7.27
2018-03-08T08:27:04.464Z,6.20
2018-03-08T08:29:32.730Z,8.97
2018-03-08T08:32:01.028Z,8.73
2018-03-08T08:34:29.294Z,9.40
2018-03-08T08:36:56.879Z,10.00
2018-03-08T08:39:24.498Z,10.07
2018-03-08T08:41:51.999Z,8.03
2018-03-08T08:44:20.283Z,10.00
2018-03-08T08:46:49.119Z,8.93
2018-03-08T08:49:17.455Z,9.37
2018-03-08T08:51:45.733Z,9.03
2018-03-08T08:54:14.011Z,8.37
2018-03-08T08:56:42.302Z,8.20
2018-03-08T08:59:10.565Z,8.10
2018-03-08T09:01:38.869Z,10.63
2018-03-08T09:04:06.384Z,11.70
2018-03-08T09:06:33.992Z,11.50
2018-03-08T09:09:02.286Z,11.30
2018-03-08T09:11:29.829Z,10.83
2018-03-08T09:13:58.108Z,10.30
2018-03-08T09:16:26.479Z,10.07
2018-03-08T09:18:53.992Z,9.80
2018-03-08T09:21:21.523Z,7.73
2018-03-08T09:23:49.807Z,8.60
2018-03-08T09:26:18.191Z,7.83
2018-03-08T09:28:45.789Z,9.13
2018-03-08T09:31:13.304Z,11.07
2018-03-08T09:33:41.590Z,7.33
2018-03-08T09:36:09.879Z,9.50
2018-03-08T09:38:38.148Z,9.97
2018-03-08T09:41:06.419Z,9.30
2018-03-08T09:43:33.953Z,8.40
2018-03-08T09:46:01.566Z,9.20
2018-03-08T09:48:29.838Z,7.30
2018-03-08T09:50:58.130Z,7.63
2018-03-08T09:53:26.409Z,9.37
2018-03-08T09:55:54.686Z,10.37
2018-03-08T09:58:22.961Z,8.77
2018-03-08T10:00:52.274Z,6.97
2018-03-08T10:03:21.429Z,9.70
2018-03-08T10:05:48.949Z,7.13
2018-03-08T10:08:16.453Z,7.90
2018-03-08T10:10:43.959Z,7.37
2018-03-08T10:13:12.290Z,12.57
2018-03-08T10:15:39.810Z,10.40
2018-03-08T10:18:08.093Z,8.23
2018-03-08T10:20:36.374Z,12.13
2018-03-08T10:23:04.655Z,16.93
2018-03-08T10:25:33.058Z,18.03
2018-03-08T10:28:00.596Z,13.37
2018-03-08T10:30:28.874Z,12.40
2018-03-08T10:32:57.616Z,11.77
2018-03-08T10:35:25.268Z,10.53
2018-03-08T10:37:58.032Z,11.57
2018-03-08T10:42:53.315Z,10.07
2018-03-08T10:45:20.850Z,10.60
2018-03-08T10:47:48.356Z,12.50
2018-03-08T10:50:15.881Z,14.40
2018-03-08T10:52:43.393Z,10.97
2018-03-08T10:55:11.688Z,12.33
2018-03-08T10:57:39.959Z,11.73
2018-03-08T11:00:08.247Z,11.07
2018-03-08T11:02:54.261Z,13.60
2018-03-08T11:05:22.599Z,10.40
2018-03-08T11:07:50.893Z,9.93
2018-03-08T11:10:19.169Z,20.70
2018-03-08T11:12:47.458Z,55.63
2018-03-08T11:15:15.849Z,49.07
2018-03-08T11:17:43.410Z,46.27
2018-03-08T11:20:11.682Z,37.50
2018-03-08T11:22:39.958Z,33.57
2018-03-08T11:25:08.237Z,29.43
2018-03-08T11:27:36.528Z,34.40
2018-03-08T11:30:04.050Z,29.77
2018-03-08T11:32:31.655Z,28.70
2018-03-08T11:34:59.943Z,27.50
2018-03-08T11:37:28.132Z,23.27
2018-03-08T11:39:55.677Z,24.73
2018-03-08T11:42:23.247Z,23.97
2018-03-08T11:44:54.293Z,23.37
2018-03-08T11:47:22.574Z,21.33
2018-03-08T11:49:50.133Z,30.37
2018-03-08T11:52:18.521Z,24.07
2018-03-08T11:54:46.103Z,33.00
2018-03-08T11:57:13.653Z,31.13
2018-03-08T11:59:41.220Z,29.07
2018-03-08T12:02:08.737Z,25.30
2018-03-08T12:04:36.280Z,32.73
2018-03-08T12:07:03.793Z,30.57
2018-03-08T12:09:32.072Z,27.17
2018-03-08T12:12:00.399Z,26.53
2018-03-08T12:14:27.892Z,25.97
2018-03-08T12:16:55.534Z,26.83
2018-03-08T12:19:23.050Z,29.50
2018-03-08T12:21:51.326Z,26.67
2018-03-08T12:24:19.601Z,33.20
2018-03-08T12:26:47.879Z,31.17
2018-03-08T12:29:15.407Z,25.70
2018-03-08T12:31:42.925Z,26.23
2018-03-08T12:34:11.195Z,24.70
2018-03-08T12:36:39.495Z,27.57
2018-03-08T12:39:07.009Z,31.80
2018-03-08T12:41:34.611Z,20.27
2018-03-08T12:44:02.901Z,23.53
2018-03-08T12:46:30.417Z,20.80
2018-03-08T12:48:58.739Z,23.03
2018-03-08T12:51:27.011Z,24.17
2018-03-08T12:53:55.295Z,19.97
2018-03-08T12:56:23.578Z,21.60
2018-03-08T12:58:51.856Z,21.30
2018-03-08T13:01:20.134Z,22.77
2018-03-08T13:03:48.511Z,19.43
2018-03-08T13:06:16.793Z,22.13
2018-03-08T13:08:45.086Z,22.07
2018-03-08T13:11:13.467Z,19.57
2018-03-08T13:13:41.744Z,19.93
2018-03-08T13:16:10.022Z,19.30
2018-03-08T13:18:38.303Z,24.63
2018-03-08T13:21:06.583Z,22.63
2018-03-08T13:23:34.869Z,24.20
2018-03-08T13:26:03.151Z,21.37
2018-03-08T13:28:31.434Z,20.47
2018-03-08T13:31:00.380Z,21.43
2018-03-08T13:33:27.896Z,21.00
2018-03-08T13:35:56.168Z,20.93
2018-03-08T13:38:24.466Z,22.03
2018-03-08T13:40:52.015Z,22.40
2018-03-08T13:43:19.511Z,18.93
2018-03-08T13:45:52.395Z,20.97
2018-03-08T13:48:20.038Z,23.40
2018-03-08T13:50:47.547Z,21.87
2018-03-08T13:53:15.165Z,21.57
2018-03-08T13:55:42.683Z,21.03
2018-03-08T13:58:10.288Z,19.77
2018-03-08T14:00:38.567Z,21.30
2018-03-08T14:03:06.873Z,19.70
2018-03-08T14:05:34.366Z,21.60
2018-03-08T14:08:01.874Z,20.77
2018-03-08T14:10:30.280Z,20.63
2018-03-08T14:12:57.804Z,18.10
2018-03-08T14:15:25.404Z,21.07
2018-03-08T14:17:52.954Z,20.10
2018-03-08T14:20:21.231Z,15.20
2018-03-08T14:22:49.497Z,16.63
2018-03-08T14:25:17.006Z,17.47
2018-03-08T14:27:44.541Z,21.80
2018-03-08T14:30:12.820Z,17.23
2018-03-08T14:32:41.413Z,17.30
2018-03-08T14:35:08.976Z,20.80
2018-03-08T14:37:36.535Z,15.37
2018-03-08T14:40:04.821Z,16.17
2018-03-08T14:42:33.202Z,21.63
2018-03-08T14:45:01.483Z,18.40
2018-03-08T14:47:30.148Z,20.67
2018-03-08T14:49:57.739Z,16.70
2018-03-08T14:52:25.251Z,20.33
2018-03-08T14:54:52.772Z,16.97
2018-03-08T14:57:20.324Z,16.47
2018-03-08T14:59:48.707Z,18.70
2018-03-08T15:02:19.111Z,18.80
2018-03-08T15:04:47.417Z,17.37
2018-03-08T15:07:15.802Z,19.87
2018-03-08T15:09:44.083Z,24.37
2018-03-08T15:12:12.668Z,17.23
2018-03-08T15:14:40.955Z,18.97
2018-03-08T15:17:09.505Z,17.47
2018-03-08T15:19:37.105Z,18.37
2018-03-08T15:22:05.456Z,22.17
2018-03-08T15:27:07.256Z,15.53
2018-03-08T15:29:35.533Z,17.63
2018-03-08T15:32:03.825Z,18.47
2018-03-08T15:34:31.362Z,15.67
2018-03-08T15:36:58.878Z,16.00
2018-03-08T15:39:26.393Z,16.07
2018-03-08T15:41:53.985Z,15.23
2018-03-08T15:44:22.267Z,14.67
2018-03-08T15:46:51.101Z,14.23
2018-03-08T15:49:18.714Z,15.93
2018-03-08T15:51:46.256Z,14.00
2018-03-08T15:54:13.770Z,13.60
2018-03-08T15:56:41.318Z,13.43
2018-03-08T15:59:09.603Z,13.37
2018-03-08T16:01:38.602Z,14.07
2018-03-08T16:04:06.159Z,13.93
2018-03-08T16:06:46.499Z,15.20
2018-03-08T16:09:36.262Z,12.60
2018-03-08T16:12:03.800Z,13.53
2018-03-08T16:14:31.327Z,17.13
2018-03-08T16:16:58.843Z,16.47
2018-03-08T16:19:26.360Z,15.13
2018-03-08T16:21:53.903Z,14.20
2018-03-08T16:24:21.463Z,12.87
2018-03-08T16:26:50.324Z,12.63
2018-03-08T16:29:18.471Z,12.13
2018-03-08T16:31:46.016Z,10.63
2018-03-08T16:34:13.580Z,14.83
2018-03-08T16:36:42.106Z,15.27
2018-03-08T16:39:09.718Z,14.00
2018-03-08T16:41:38.001Z,14.87
2018-03-08T16:44:05.515Z,17.00
2018-03-08T16:46:33.038Z,13.93
2018-03-08T16:49:00.563Z,15.73
2018-03-08T16:51:28.900Z,13.70
2018-03-08T16:53:56.399Z,12.87
2018-03-08T16:56:23.929Z,12.37
2018-03-08T16:58:51.585Z,11.30
2018-03-08T17:01:19.125Z,10.20
2018-03-08T17:03:47.403Z,11.00
2018-03-08T17:06:16.713Z,11.60
2018-03-08T17:08:44.996Z,11.03
2018-03-08T17:11:12.506Z,9.97
2018-03-08T17:13:40.020Z,11.97
2018-03-08T17:16:07.539Z,11.07
2018-03-08T17:18:35.061Z,9.37
2018-03-08T17:21:02.616Z,10.10
2018-03-08T17:23:30.117Z,9.53
2018-03-08T17:25:57.729Z,11.43
2018-03-08T17:28:26.048Z,10.87
2018-03-08T17:30:53.528Z,12.23
2018-03-08T17:33:25.591Z,8.87
2018-03-08T17:35:53.236Z,11.73
2018-03-08T17:38:20.778Z,10.47
2018-03-08T17:40:49.152Z,8.60
2018-03-08T17:43:17.429Z,7.57
2018-03-08T17:45:45.968Z,8.27
2018-03-08T17:48:13.478Z,8.10
2018-03-08T17:50:41.767Z,7.67
2018-03-08T17:53:10.039Z,6.30
2018-03-08T17:55:38.317Z,7.80
2018-03-08T17:58:06.588Z,6.37
2018-03-08T18:00:34.175Z,8.17
2018-03-08T18:03:02.452Z,8.27
2018-03-08T18:05:30.729Z,7.33
2018-03-08T18:07:59.014Z,6.77
2018-03-08T18:10:27.297Z,8.73
2018-03-08T18:12:55.572Z,5.67
2018-03-08T18:15:23.976Z,8.30
2018-03-08T18:17:51.485Z,6.13
2018-03-08T18:20:19.108Z,7.20
2018-03-08T18:22:46.639Z,5.77
2018-03-08T18:25:14.144Z,5.83
2018-03-08T18:27:41.744Z,5.50
2018-03-08T18:30:09.244Z,6.60
2018-03-08T18:32:37.627Z,7.57
2018-03-08T18:35:06.013Z,7.17
2018-03-08T18:37:34.287Z,6.87
2018-03-08T18:40:02.581Z,7.50
2018-03-08T18:42:30.148Z,6.80
2018-03-08T18:44:57.758Z,6.53
2018-03-08T18:47:25.977Z,7.20
2018-03-08T18:49:54.260Z,8.37
2018-03-08T18:52:22.647Z,7.97
2018-03-08T18:54:51.023Z,7.93
2018-03-08T18:57:19.291Z,6.37
2018-03-08T18:59:46.849Z,9.80
2018-03-08T19:02:14.322Z,12.07
2018-03-08T19:04:42.605Z,6.83
2018-03-08T19:07:10.897Z,7.70
2018-03-08T19:09:39.272Z,6.43
2018-03-08T19:12:07.779Z,8.17
2018-03-08T19:14:39.525Z,8.03
2018-03-08T19:17:07.798Z,7.47
2018-03-08T19:19:36.066Z,8.07
2018-03-08T19:22:03.673Z,7.40
2018-03-08T19:24:31.173Z,8.60
2018-03-08T19:26:58.678Z,6.00
2018-03-08T19:29:26.945Z,8.07
2018-03-08T19:31:55.239Z,8.43
2018-03-08T19:34:23.526Z,5.67
2018-03-08T19:36:51.088Z,8.00
2018-03-08T19:39:19.356Z,7.93
2018-03-08T19:41:47.632Z,9.23
2018-03-08T19:44:15.902Z,8.60
2018-03-08T19:46:43.424Z,6.30
2018-03-08T19:49:10.936Z,9.17
2018-03-08T19:51:38.476Z,4.90
2018-03-08T19:54:06.012Z,5.53
2018-03-08T19:56:33.541Z,4.67
2018-03-08T19:59:01.822Z,12.20
2018-03-08T20:01:30.203Z,10.40
2018-03-08T20:03:58.470Z,10.50
2018-03-08T20:06:26.053Z,12.80
2018-03-08T20:08:54.331Z,8.77
2018-03-08T20:11:22.621Z,10.20
2018-03-08T20:13:50.126Z,10.20
2018-03-08T20:16:17.632Z,10.23
2018-03-08T20:18:45.937Z,12.53
2018-03-08T20:21:13.442Z,12.57
2018-03-08T20:23:40.951Z,12.37
2018-03-08T20:26:08.515Z,14.33
2018-03-08T20:28:36.029Z,15.37
2018-03-08T20:31:03.561Z,9.80
2018-03-08T20:33:31.064Z,12.00
2018-03-08T20:35:58.580Z,8.37
2018-03-08T20:38:26.091Z,8.97
2018-03-08T20:40:53.923Z,9.87
2018-03-08T20:43:21.490Z,9.20
2018-03-08T20:45:49.025Z,10.60
2018-03-08T20:48:17.293Z,10.00
2018-03-08T20:50:46.612Z,10.10
2018-03-08T20:53:14.887Z,8.23
2018-03-08T20:55:43.162Z,9.13
2018-03-08T20:58:11.449Z,10.80
2018-03-08T21:00:39.728Z,8.43
2018-03-08T21:03:08.014Z,9.27
2018-03-08T21:05:36.288Z,9.57
2018-03-08T21:08:04.569Z,9.80
2018-03-08T21:10:32.853Z,9.03
2018-03-08T21:13:01.121Z,7.47
2018-03-08T21:15:29.418Z,7.80
2018-03-08T21:17:57.805Z,7.53
2018-03-08T21:20:25.312Z,8.00
2018-03-08T21:22:52.923Z,9.43
2018-03-08T21:25:21.204Z,8.90
2018-03-08T21:27:49.494Z,8.67
2018-03-08T21:30:17.768Z,7.33
2018-03-08T21:32:46.148Z,6.90
2018-03-08T21:35:14.436Z,8.70
2018-03-08T21:37:42.716Z,8.37
2018-03-08T21:40:11.111Z,8.23
2018-03-08T21:42:38.619Z,6.00
2018-03-08T21:45:06.218Z,5.70
2018-03-08T21:47:34.489Z,5.40
2018-03-08T21:50:01.994Z,5.40
2018-03-08T21:52:29.497Z,5.63
2018-03-08T21:54:57.011Z,4.60
2018-03-08T21:57:24.561Z,3.77
2018-03-08T21:59:52.841Z,4.03
2018-03-08T22:02:21.110Z,5.90
2018-03-08T22:04:49.377Z,3.60
2018-03-08T22:07:16.884Z,4.37
2018-03-08T22:09:44.400Z,4.63
2018-03-08T22:12:12.698Z,4.07
2018-03-08T22:14:40.195Z,5.37
2018-03-08T22:17:07.733Z,4.43
2018-03-08T22:19:36.014Z,3.37
2018-03-08T22:22:04.292Z,3.60
2018-03-08T22:24:32.564Z,5.13
2018-03-08T22:27:00.838Z,2.97
2018-03-08T22:29:28.433Z,3.37
2018-03-08T22:31:55.935Z,3.53
2018-03-08T22:34:23.437Z,3.70
2018-03-08T22:36:51.714Z,3.53
2018-03-08T22:39:19.980Z,3.73
2018-03-08T22:41:47.575Z,2.83
2018-03-08T22:44:15.841Z,3.83
2018-03-08T22:46:44.108Z,2.90
2018-03-08T22:49:11.614Z,3.37
2018-03-08T22:51:39.174Z,4.07
2018-03-08T22:54:06.737Z,3.10
2018-03-08T22:56:34.241Z,3.20
2018-03-08T22:59:01.854Z,3.43
2018-03-08T23:04:41.351Z,3.37
2018-03-08T23:07:08.956Z,3.23
2018-03-08T23:09:37.224Z,3.33
2018-03-08T23:12:04.727Z,3.00
2018-03-08T23:14:32.249Z,3.27
2018-03-08T23:16:59.755Z,3.43
2018-03-08T23:19:27.254Z,3.03
2018-03-08T23:21:54.785Z,3.00
2018-03-08T23:24:22.316Z,3.17
2018-03-08T23:26:50.584Z,3.30
2018-03-08T23:29:18.856Z,3.27
2018-03-08T23:31:46.446Z,3.17
2018-03-08T23:34:14.715Z,3.10
2018-03-08T23:36:42.982Z,3.27
2018-03-08T23:39:10.573Z,3.23
2018-03-08T23:41:38.841Z,3.30
2018-03-08T23:44:07.329Z,3.10
2018-03-08T23:46:35.618Z,3.23
2018-03-08T23:49:03.998Z,4.17
2018-03-08T23:51:33.135Z,3.67
2018-03-08T23:54:01.475Z,2.90
2018-03-08T23:56:29.757Z,2.43
2018-03-08T23:58:58.033Z,2.60
